createdAt,value
2018-12-23T00:01:22.485Z,4.80
2018-12-23T00:03:51.397Z,4.77
2018-12-23T00:06:20.316Z,5.33
2018-12-23T00:08:49.199Z,4.50
2018-12-23T00:11:18.099Z,4.50
2018-12-23T00:13:47.029Z,3.70
2018-12-23T00:16:15.907Z,5.13
2018-12-23T00:18:44.825Z,3.73
2018-12-23T00:21:13.721Z,4.43
2018-12-23T00:23:42.613Z,4.72
2018-12-23T00:26:11.515Z,3.70
2018-12-23T00:28:40.419Z,4.30
2018-12-23T00:31:09.308Z,4.50
2018-12-23T00:33:38.248Z,4.13
2018-12-23T00:36:07.137Z,4.03
2018-12-23T00:38:36.010Z,3.60
2018-12-23T00:41:04.906Z,4.30
2018-12-23T00:43:33.875Z,4.60
2018-12-23T00:46:02.692Z,4.20
2018-12-23T00:48:31.614Z,4.00
2018-12-23T00:51:00.522Z,3.73
2018-12-23T00:53:29.451Z,4.17
2018-12-23T00:55:58.336Z,3.63
2018-12-23T00:58:27.214Z,3.53
2018-12-23T01:00:56.141Z,3.57
2018-12-23T01:03:25.023Z,3.90
2018-12-23T01:05:53.941Z,4.30
2018-12-23T01:08:22.825Z,3.40
2018-12-23T01:10:51.692Z,3.70
2018-12-23T01:13:20.598Z,3.07
2018-12-23T01:15:49.480Z,3.57
2018-12-23T01:18:18.439Z,4.13
2018-12-23T01:20:47.293Z,4.23
2018-12-23T01:23:16.166Z,3.37
2018-12-23T01:25:45.091Z,3.93
2018-12-23T01:28:14.100Z,3.40
2018-12-23T01:30:42.891Z,4.65
2018-12-23T01:33:11.803Z,3.57
2018-12-23T01:35:40.672Z,3.80
2018-12-23T01:38:09.586Z,4.53
2018-12-23T01:40:38.503Z,4.53
2018-12-23T01:43:07.470Z,3.87
2018-12-23T01:45:36.419Z,3.93
2018-12-23T01:48:05.470Z,3.83
2018-12-23T01:50:34.240Z,3.33
2018-12-23T01:53:03.161Z,3.57
2018-12-23T01:55:32.067Z,3.90
2018-12-23T01:58:00.994Z,4.00
2018-12-23T02:00:29.873Z,3.53
2018-12-23T02:02:58.766Z,4.30
2018-12-23T02:05:27.676Z,3.50
2018-12-23T02:07:56.572Z,4.20
2018-12-23T02:10:25.490Z,3.97
2018-12-23T02:12:54.438Z,4.83
2018-12-23T02:15:23.285Z,4.90
2018-12-23T02:17:52.153Z,4.70
2018-12-23T02:20:21.065Z,5.27
2018-12-23T02:22:49.956Z,4.63
2018-12-23T02:25:18.890Z,4.77
2018-12-23T02:27:47.786Z,5.00
2018-12-23T02:30:16.687Z,4.70
2018-12-23T02:32:45.585Z,4.80
2018-12-23T02:35:14.487Z,4.80
2018-12-23T02:37:43.405Z,4.97
2018-12-23T02:40:12.271Z,5.27
2018-12-23T02:42:41.255Z,5.30
2018-12-23T02:45:10.074Z,5.90
2018-12-23T02:47:39.022Z,6.60
2018-12-23T02:50:07.966Z,6.60
2018-12-23T02:52:36.874Z,6.80
2018-12-23T02:55:05.805Z,7.00
2018-12-23T02:57:34.720Z,6.70
2018-12-23T03:00:03.627Z,6.87
2018-12-23T03:02:32.511Z,7.27
2018-12-23T03:05:01.429Z,7.73
2018-12-23T03:07:30.365Z,7.60
2018-12-23T03:09:59.234Z,8.20
2018-12-23T03:12:28.150Z,7.87
2018-12-23T03:14:57.048Z,12.18
2018-12-23T03:17:25.962Z,9.63
2018-12-23T03:19:54.892Z,8.53
2018-12-23T03:22:23.800Z,9.73
2018-12-23T03:24:52.689Z,9.70
2018-12-23T03:27:21.603Z,9.67
2018-12-23T03:29:50.521Z,10.40
2018-12-23T03:32:19.382Z,10.90
2018-12-23T03:34:48.305Z,11.23
2018-12-23T03:37:17.164Z,12.30
2018-12-23T03:39:46.075Z,12.10
2018-12-23T03:42:14.940Z,13.00
2018-12-23T03:44:43.878Z,13.10
2018-12-23T03:47:12.810Z,15.03
2018-12-23T03:49:41.685Z,14.93
2018-12-23T03:52:10.591Z,19.27
2018-12-23T03:54:39.482Z,16.20
2018-12-23T03:57:08.400Z,18.80
2018-12-23T03:59:37.288Z,19.90
2018-12-23T04:02:06.183Z,19.60
2018-12-23T04:04:35.065Z,21.70
2018-12-23T04:07:03.997Z,20.57
2018-12-23T04:09:32.902Z,21.23
2018-12-23T04:12:01.787Z,22.17
2018-12-23T04:14:30.669Z,23.03
2018-12-23T04:16:59.579Z,21.83
2018-12-23T04:19:28.440Z,28.20
2018-12-23T04:21:57.347Z,24.53
2018-12-23T04:24:26.213Z,23.73
2018-12-23T04:26:55.102Z,23.87
2018-12-23T04:29:24.019Z,23.97
2018-12-23T04:31:52.957Z,23.83
2018-12-23T04:34:21.808Z,23.43
2018-12-23T04:36:50.734Z,25.67
2018-12-23T04:39:19.850Z,24.87
2018-12-23T04:41:48.739Z,26.90
2018-12-23T04:44:17.655Z,26.87
2018-12-23T04:46:46.545Z,25.87
2018-12-23T04:49:15.458Z,26.07
2018-12-23T04:51:44.345Z,25.17
2018-12-23T04:54:13.278Z,26.40
2018-12-23T04:56:42.200Z,27.53
2018-12-23T04:59:11.066Z,27.10
2018-12-23T05:01:40.007Z,27.93
2018-12-23T05:04:08.953Z,29.40
2018-12-23T05:06:43.274Z,29.33
2018-12-23T05:09:07.052Z,28.07
2018-12-23T05:11:35.937Z,28.57
2018-12-23T05:14:04.861Z,27.43
2018-12-23T05:16:33.759Z,28.17
2018-12-23T05:19:02.660Z,28.60
2018-12-23T05:21:31.557Z,29.13
2018-12-23T05:24:00.431Z,28.37
2018-12-23T05:26:29.330Z,28.17
2018-12-23T05:28:58.221Z,27.90
2018-12-23T05:31:27.129Z,27.70
2018-12-23T05:33:56.003Z,29.70
2018-12-23T05:36:24.940Z,24.60
2018-12-23T05:38:53.843Z,27.73
2018-12-23T05:41:22.787Z,27.27
2018-12-23T05:43:51.673Z,28.30
2018-12-23T05:46:20.552Z,25.20
2018-12-23T05:48:49.432Z,24.47
2018-12-23T05:51:18.342Z,26.53
2018-12-23T05:53:47.229Z,25.13
2018-12-23T05:56:16.148Z,25.03
2018-12-23T05:58:45.028Z,31.25
2018-12-23T06:01:13.952Z,25.83
2018-12-23T06:03:42.860Z,24.50
2018-12-23T06:06:11.738Z,25.70
2018-12-23T06:08:40.644Z,24.97
2018-12-23T06:11:09.526Z,26.07
2018-12-23T06:13:38.425Z,26.50
2018-12-23T06:16:07.333Z,27.63
2018-12-23T06:18:36.309Z,26.83
2018-12-23T06:21:05.131Z,26.37
2018-12-23T06:23:34.047Z,27.57
2018-12-23T06:26:02.974Z,27.70
2018-12-23T06:28:31.864Z,27.87
2018-12-23T06:31:00.769Z,29.80
2018-12-23T06:33:29.677Z,31.17
2018-12-23T06:35:58.580Z,29.50
2018-12-23T06:38:27.479Z,29.27
2018-12-23T06:40:56.352Z,30.50
2018-12-23T06:43:25.252Z,30.50
2018-12-23T06:45:54.148Z,31.00
2018-12-23T06:48:23.015Z,29.80
2018-12-23T06:50:51.929Z,29.80
2018-12-23T06:53:20.874Z,30.73
2018-12-23T06:55:49.740Z,29.27
2018-12-23T06:58:18.634Z,30.17
2018-12-23T07:00:47.517Z,31.20
2018-12-23T07:03:16.398Z,37.70
2018-12-23T07:05:45.293Z,31.80
2018-12-23T07:08:14.199Z,31.27
2018-12-23T07:10:43.096Z,30.80
2018-12-23T07:13:11.998Z,31.63
2018-12-23T07:15:40.892Z,32.00
2018-12-23T07:18:09.811Z,30.90
2018-12-23T07:20:38.690Z,32.00
2018-12-23T07:23:07.608Z,32.83
2018-12-23T07:25:36.499Z,30.87
2018-12-23T07:28:05.428Z,32.13
2018-12-23T07:30:34.352Z,31.17
2018-12-23T07:33:03.289Z,38.53
2018-12-23T07:35:32.189Z,32.67
2018-12-23T07:38:01.127Z,29.43
2018-12-23T07:40:30.033Z,30.37
2018-12-23T07:42:58.926Z,30.57
2018-12-23T07:45:27.847Z,30.30
2018-12-23T07:47:56.785Z,30.23
2018-12-23T07:50:25.687Z,40.52
2018-12-23T07:52:54.622Z,33.07
2018-12-23T07:55:23.520Z,31.70
2018-12-23T07:57:52.428Z,32.43
2018-12-23T08:00:21.332Z,32.80
2018-12-23T08:02:50.245Z,33.33
2018-12-23T08:05:19.193Z,32.53
2018-12-23T08:07:48.053Z,32.87
2018-12-23T08:10:16.946Z,41.98
2018-12-23T08:12:45.826Z,34.77
2018-12-23T08:15:14.729Z,34.63
2018-12-23T08:17:43.620Z,34.43
2018-12-23T08:20:12.524Z,34.70
2018-12-23T08:22:41.417Z,33.00
2018-12-23T08:25:12.606Z,36.40
2018-12-23T08:27:41.513Z,33.30
2018-12-23T08:30:10.513Z,36.03
2018-12-23T08:32:39.420Z,36.40
2018-12-23T08:35:08.374Z,37.67
2018-12-23T08:37:44.420Z,35.87
2018-12-23T08:40:06.187Z,35.83
2018-12-23T08:42:35.062Z,36.87
2018-12-23T08:45:04.109Z,36.33
2018-12-23T08:47:33.025Z,36.40
2018-12-23T08:50:01.926Z,37.87
2018-12-23T08:52:30.884Z,37.67
2018-12-23T08:54:59.751Z,38.83
2018-12-23T08:57:28.706Z,38.53
2018-12-23T08:59:57.558Z,39.47
2018-12-23T09:02:26.502Z,40.70
2018-12-23T09:04:55.395Z,39.97
2018-12-23T09:07:24.280Z,39.10
2018-12-23T09:09:53.187Z,38.73
2018-12-23T09:12:22.063Z,39.43
2018-12-23T09:14:51.013Z,41.27
2018-12-23T09:17:19.902Z,42.20
2018-12-23T09:19:48.865Z,40.57
2018-12-23T09:22:19.705Z,53.30
2018-12-23T09:24:46.671Z,53.42
2018-12-23T09:27:15.582Z,43.63
2018-12-23T09:29:44.534Z,40.97
2018-12-23T09:32:13.498Z,41.57
2018-12-23T09:34:42.330Z,40.80
2018-12-23T09:37:11.230Z,42.53
2018-12-23T09:39:40.108Z,41.97
2018-12-23T09:42:09.091Z,43.40
2018-12-23T09:44:54.924Z,43.53
2018-12-23T09:47:26.053Z,39.93
2018-12-23T09:49:58.348Z,82.17
2018-12-23T09:52:30.974Z,56.83
2018-12-23T09:55:08.008Z,45.50
2018-12-23T09:57:40.162Z,54.35
2018-12-23T10:00:25.549Z,44.40
2018-12-23T10:02:57.094Z,42.53
2018-12-23T10:05:26.461Z,42.17
2018-12-23T10:08:11.811Z,42.30
2018-12-23T10:10:41.530Z,40.17
2018-12-23T10:13:10.849Z,41.73
2018-12-23T10:15:42.881Z,39.63
2018-12-23T10:18:22.267Z,41.40
2018-12-23T10:20:51.621Z,40.77
2018-12-23T10:23:22.577Z,40.97
2018-12-23T10:25:57.171Z,39.10
2018-12-23T10:28:27.247Z,39.50
2018-12-23T10:30:56.563Z,37.87
2018-12-23T10:33:29.292Z,37.73
2018-12-23T10:35:58.517Z,50.00
2018-12-23T10:38:30.771Z,37.63
2018-12-23T10:41:04.365Z,36.17
2018-12-23T10:43:33.727Z,37.23
2018-12-23T10:46:06.444Z,35.97
2018-12-23T10:48:36.208Z,46.70
2018-12-23T10:51:13.597Z,37.83
2018-12-23T10:53:48.739Z,34.97
2018-12-23T10:56:17.920Z,35.60
2018-12-23T10:58:47.285Z,35.00
2018-12-23T11:01:19.670Z,35.20
2018-12-23T11:03:51.659Z,35.43
2018-12-23T11:06:23.828Z,35.27
2018-12-23T11:08:53.681Z,34.87
2018-12-23T11:11:29.524Z,34.53
2018-12-23T11:13:59.089Z,32.83
2018-12-23T11:16:28.548Z,42.00
2018-12-23T11:19:00.733Z,34.47
2018-12-23T11:21:30.270Z,33.43
2018-12-23T11:24:11.210Z,33.23
2018-12-23T11:26:45.083Z,33.07
2018-12-23T11:29:12.958Z,31.40
2018-12-23T11:31:42.330Z,31.33
2018-12-23T11:34:16.047Z,31.90
2018-12-23T11:36:47.555Z,31.27
2018-12-23T11:39:17.183Z,29.90
2018-12-23T11:41:46.494Z,31.10
2018-12-23T11:44:15.811Z,31.07
2018-12-23T11:46:46.918Z,29.97
2018-12-23T11:49:14.456Z,38.17
2018-12-23T11:51:43.954Z,32.60
2018-12-23T11:55:02.144Z,30.77
2018-12-23T11:57:32.481Z,31.40
2018-12-23T12:00:04.587Z,32.60
2018-12-23T12:02:36.010Z,33.40
2018-12-23T12:05:05.344Z,32.97
2018-12-23T12:07:37.666Z,32.07
2018-12-23T12:10:09.660Z,31.63
2018-12-23T12:12:39.741Z,31.30
2018-12-23T12:15:09.281Z,30.17
2018-12-23T12:17:39.092Z,32.53
2018-12-23T12:20:15.049Z,27.97
2018-12-23T12:22:44.851Z,29.20
2018-12-23T12:25:18.700Z,35.60
2018-12-23T12:27:48.093Z,28.50
2018-12-23T12:30:17.467Z,25.13
2018-12-23T12:32:47.323Z,25.30
2018-12-23T12:35:16.720Z,26.10
2018-12-23T12:37:48.465Z,24.67
2018-12-23T12:40:17.849Z,23.60
2018-12-23T12:42:47.100Z,23.00
2018-12-23T12:45:19.088Z,22.60
2018-12-23T12:47:48.758Z,23.10
2018-12-23T12:50:24.780Z,22.47
2018-12-23T12:52:52.540Z,21.90
2018-12-23T12:55:21.233Z,22.67
2018-12-23T12:57:53.656Z,20.87
2018-12-23T13:00:22.708Z,17.97
2018-12-23T13:02:57.360Z,17.53
2018-12-23T13:05:26.575Z,15.43
2018-12-23T13:07:56.492Z,15.20
2018-12-23T13:10:26.037Z,14.27
2018-12-23T13:12:58.390Z,16.50
2018-12-23T13:15:28.064Z,13.97
2018-12-23T13:17:57.711Z,13.23
2018-12-23T13:20:30.117Z,12.70
2018-12-23T13:23:04.209Z,15.50
2018-12-23T13:25:36.210Z,13.10
2018-12-23T13:28:07.674Z,11.53
2018-12-23T13:30:37.326Z,11.97
2018-12-23T13:33:16.850Z,10.50
2018-12-23T13:35:46.428Z,10.70
2018-12-23T13:38:15.832Z,9.70
2018-12-23T13:41:35.211Z,9.63
2018-12-23T13:44:57.289Z,10.47
2018-12-23T13:47:57.643Z,10.07
2018-12-23T13:50:59.234Z,9.77
2018-12-23T13:53:59.482Z,10.50
2018-12-23T13:56:55.190Z,10.13
2018-12-23T14:00:02.321Z,10.03
2018-12-23T14:03:26.755Z,10.17
2018-12-23T14:06:26.046Z,11.10
2018-12-23T14:09:21.265Z,10.97
2018-12-23T14:11:59.525Z,10.97
2018-12-23T14:14:28.961Z,11.00
2018-12-23T14:16:58.384Z,11.00
2018-12-23T14:19:29.571Z,11.60
2018-12-23T14:22:03.266Z,12.20
2018-12-23T14:24:35.904Z,15.95
2018-12-23T14:27:08.875Z,11.83
2018-12-23T14:29:39.777Z,12.20
2018-12-23T14:32:09.361Z,12.13
2018-12-23T14:34:45.983Z,12.73
2018-12-23T14:37:15.801Z,12.63
2018-12-23T14:39:47.461Z,12.57
2018-12-23T14:42:21.951Z,12.50
2018-12-23T14:44:58.897Z,12.97
2018-12-23T14:47:28.167Z,12.73
2018-12-23T14:50:00.794Z,12.97
2018-12-23T14:52:30.294Z,13.67
2018-12-23T14:55:02.594Z,12.90
2018-12-23T14:57:33.533Z,12.70
2018-12-23T15:00:04.391Z,13.40
2018-12-23T15:02:35.737Z,13.57
2018-12-23T15:05:05.887Z,13.20
2018-12-23T15:07:38.033Z,12.77
2018-12-23T15:10:08.878Z,11.67
2018-12-23T15:12:41.822Z,12.73
2018-12-23T15:15:14.581Z,13.13
2018-12-23T15:17:44.153Z,13.53
2018-12-23T15:20:13.979Z,12.47
2018-12-23T15:22:46.344Z,12.37
2018-12-23T15:25:17.880Z,11.97
2018-12-23T15:27:48.314Z,12.10
2018-12-23T15:30:19.762Z,17.73
2018-12-23T15:32:49.245Z,13.03
2018-12-23T15:35:24.326Z,13.03
2018-12-23T15:37:58.060Z,17.73
2018-12-23T15:40:26.932Z,12.73
2018-12-23T15:42:55.862Z,13.07
2018-12-23T15:45:24.778Z,16.60
2018-12-23T15:47:53.660Z,14.43
2018-12-23T15:50:22.552Z,14.20
2018-12-23T15:52:51.437Z,12.57
2018-12-23T15:55:20.326Z,11.73
2018-12-23T15:57:49.201Z,11.90
2018-12-23T16:00:18.117Z,11.20
2018-12-23T16:02:47.033Z,12.73
2018-12-23T16:05:15.938Z,9.93
2018-12-23T16:07:44.868Z,10.27
2018-12-23T16:10:13.758Z,9.37
2018-12-23T16:12:42.654Z,7.30
2018-12-23T16:15:11.568Z,7.77
2018-12-23T16:17:40.510Z,7.47
2018-12-23T16:20:11.477Z,6.70
2018-12-23T16:22:40.401Z,6.80
2018-12-23T16:25:09.335Z,7.60
2018-12-23T16:27:38.247Z,7.30
2018-12-23T16:30:09.089Z,7.40
2018-12-23T16:32:37.959Z,6.13
2018-12-23T16:35:06.892Z,6.47
2018-12-23T16:37:35.828Z,5.60
2018-12-23T16:40:06.894Z,5.37
2018-12-23T16:42:35.792Z,5.00
2018-12-23T16:45:04.982Z,5.13
2018-12-23T16:47:33.914Z,4.43
2018-12-23T16:50:02.813Z,4.83
2018-12-23T16:52:31.695Z,4.77
2018-12-23T16:55:00.631Z,4.47
2018-12-23T16:57:29.469Z,4.80
2018-12-23T16:59:58.382Z,4.10
2018-12-23T17:02:27.284Z,3.83
2018-12-23T17:04:56.143Z,3.60
2018-12-23T17:07:25.037Z,4.13
2018-12-23T17:09:53.903Z,3.93
2018-12-23T17:12:22.797Z,4.70
2018-12-23T17:14:51.669Z,4.00
2018-12-23T17:17:20.573Z,3.80
2018-12-23T17:19:49.442Z,3.50
2018-12-23T17:22:18.370Z,3.83
2018-12-23T17:24:47.247Z,3.73
2018-12-23T17:27:16.869Z,3.50
2018-12-23T17:29:45.645Z,4.45
2018-12-23T17:32:14.568Z,3.83
2018-12-23T17:34:43.455Z,4.42
2018-12-23T17:37:12.356Z,3.57
2018-12-23T17:39:41.259Z,3.77
2018-12-23T17:42:10.202Z,4.13
2018-12-23T17:44:39.083Z,3.93
2018-12-23T17:47:07.983Z,4.37
2018-12-23T17:49:36.941Z,4.57
2018-12-23T17:52:05.854Z,4.57
2018-12-23T17:54:34.725Z,5.00
2018-12-23T17:57:03.609Z,4.60
2018-12-23T17:59:32.491Z,4.20
2018-12-23T18:02:01.423Z,4.63
2018-12-23T18:04:30.303Z,4.50
2018-12-23T18:07:03.778Z,4.90
2018-12-23T18:09:28.079Z,5.27
2018-12-23T18:11:56.976Z,4.80
2018-12-23T18:14:25.911Z,4.80
2018-12-23T18:16:54.718Z,4.70
2018-12-23T18:19:23.610Z,5.27
2018-12-23T18:21:52.501Z,5.40
2018-12-23T18:24:21.363Z,5.90
2018-12-23T18:26:50.277Z,5.47
2018-12-23T18:29:19.166Z,6.23
2018-12-23T18:31:48.066Z,6.30
2018-12-23T18:34:16.962Z,7.00
2018-12-23T18:36:45.829Z,6.60
2018-12-23T18:39:14.737Z,7.77
2018-12-23T18:41:43.611Z,6.70
2018-12-23T18:44:12.522Z,6.37
2018-12-23T18:46:41.393Z,6.47
2018-12-23T18:49:10.295Z,6.37
2018-12-23T18:51:39.171Z,6.60
2018-12-23T18:54:08.086Z,6.67
2018-12-23T18:56:40.414Z,6.47
2018-12-23T18:59:09.358Z,6.03
2018-12-23T19:01:40.677Z,7.53
2018-12-23T19:04:10.195Z,7.50
2018-12-23T19:06:39.081Z,7.17
2018-12-23T19:09:19.305Z,7.30
2018-12-23T19:12:35.912Z,7.00
2018-12-23T19:15:29.401Z,7.17
2018-12-23T19:18:36.185Z,7.20
2018-12-23T19:21:45.580Z,7.70
2018-12-23T19:24:27.463Z,7.13
2018-12-23T19:27:49.104Z,7.80
2018-12-23T19:30:44.643Z,7.13
2018-12-23T19:33:44.258Z,6.73
2018-12-23T19:37:00.726Z,9.05
2018-12-23T19:40:25.496Z,7.47
2018-12-23T19:43:21.883Z,6.77
2018-12-23T19:46:38.521Z,6.33
2018-12-23T19:49:34.010Z,6.10
2018-12-23T19:52:21.362Z,7.13
2018-12-23T19:55:22.734Z,6.80
2018-12-23T19:58:33.206Z,7.20
2018-12-23T20:01:49.900Z,7.43
2018-12-23T20:04:48.398Z,7.07
2018-12-23T20:07:33.044Z,8.17
2018-12-23T20:10:46.654Z,7.67
2018-12-23T20:13:40.121Z,7.07
2018-12-23T20:16:58.602Z,9.95
2018-12-23T20:20:00.895Z,7.60
2018-12-23T20:22:47.731Z,7.93
2018-12-23T20:25:59.991Z,7.60
2018-12-23T20:29:12.454Z,6.70
2018-12-23T20:32:28.438Z,7.20
2018-12-23T20:35:51.050Z,7.23
2018-12-23T20:38:45.160Z,6.20
2018-12-23T20:41:42.882Z,6.37
2018-12-23T20:44:41.713Z,6.40
2018-12-23T20:48:03.108Z,6.60
2018-12-23T20:51:10.913Z,7.03
2018-12-23T20:54:21.070Z,6.50
2018-12-23T20:57:43.584Z,6.43
2018-12-23T21:00:56.348Z,7.13
2018-12-23T21:03:50.850Z,7.43
2018-12-23T21:06:48.822Z,6.90
2018-12-23T21:09:45.764Z,6.97
2018-12-23T21:12:55.712Z,6.87
2018-12-23T21:16:25.439Z,4.83
2018-12-23T21:19:24.539Z,4.83
2018-12-23T21:22:20.794Z,5.00
2018-12-23T21:25:42.381Z,5.10
2018-12-23T21:28:23.986Z,5.60
2018-12-23T21:31:55.970Z,5.92
2018-12-23T21:35:12.848Z,5.23
2018-12-23T21:38:16.674Z,4.77
2018-12-23T21:41:33.682Z,7.17
2018-12-23T21:44:19.883Z,5.70
2018-12-23T21:47:25.243Z,5.47
2018-12-23T21:50:11.542Z,6.62
2018-12-23T21:53:28.229Z,5.43
2018-12-23T21:56:22.810Z,5.50
2018-12-23T21:59:24.391Z,5.17
2018-12-23T22:02:43.160Z,5.90
2018-12-23T22:05:58.744Z,6.53
2018-12-23T22:09:02.050Z,6.53
2018-12-23T22:11:52.152Z,6.90
2018-12-23T22:14:21.018Z,6.67
2018-12-23T22:16:49.943Z,7.27
2018-12-23T22:19:18.810Z,7.33
2018-12-23T22:21:47.790Z,7.00
2018-12-23T22:24:16.592Z,7.43
2018-12-23T22:26:45.496Z,7.03
2018-12-23T22:29:14.402Z,7.80
2018-12-23T22:31:43.325Z,6.80
2018-12-23T22:34:12.232Z,6.70
2018-12-23T22:36:41.138Z,6.33
2018-12-23T22:39:10.022Z,7.78
2018-12-23T22:41:41.454Z,6.20
2018-12-23T22:44:07.849Z,6.20
2018-12-23T22:46:36.710Z,5.20
2018-12-23T22:49:05.627Z,5.67
2018-12-23T22:51:34.562Z,5.53
2018-12-23T22:54:03.388Z,5.07
2018-12-23T22:56:32.263Z,5.10
2018-12-23T22:59:01.195Z,4.70
2018-12-23T23:01:30.077Z,4.93
2018-12-23T23:03:59.000Z,5.07
2018-12-23T23:06:27.935Z,4.57
2018-12-23T23:08:56.806Z,5.30
2018-12-23T23:11:27.480Z,5.43
2018-12-23T23:13:54.563Z,4.80
2018-12-23T23:16:23.437Z,4.60
2018-12-23T23:18:52.317Z,4.47
2018-12-23T23:21:21.202Z,4.27
2018-12-23T23:23:50.063Z,4.80
2018-12-23T23:26:18.942Z,4.33
2018-12-23T23:28:47.834Z,4.40
2018-12-23T23:31:16.714Z,4.37
2018-12-23T23:33:46.540Z,4.17
2018-12-23T23:36:14.501Z,4.27
2018-12-23T23:38:43.404Z,4.40
2018-12-23T23:41:12.299Z,3.87
2018-12-23T23:43:41.187Z,5.17
2018-12-23T23:46:10.079Z,5.42
2018-12-23T23:48:38.994Z,4.60
2018-12-23T23:51:07.938Z,5.45
2018-12-23T23:53:36.857Z,5.00
2018-12-23T23:56:05.772Z,4.23
2018-12-23T23:58:34.675Z,4.13
